Saint-Chrysostome, Canada
Current Conditions -  °F | °C
As of 5:00 AM on Wednesday 26 Nov 2014 (Local Time) from CYUL Reporting Station
Broken Clouds Broken Clouds  
Wind Chill: 24°   Ceiling: 24000
Heat Index: 32°   Visibility: 15mi
Dew Point: 18°   Wind: 10mph
Humidity: 55%   Direction: 270°W
Pressure: 30.22"   Gusts: NA
Location:  45.1°N, 73.75°W
Report Text: CYUL 261000Z 27009KT 15SM FEW040 BKN240 00/M08 A3022 RMK SC1CI6 SLP233
Loading
Personal Weather Stations






























Interactive Weather Map New forecast layout! Learn more

10-Day Weather Forecast

Advertisements
Track Severe Weather on mobile